S/y Blue Clipper — MCRJ6 — position and weather

sailwx.info

Track history (hours):
 
Tides and Currents Weather Stations Pressure Air Temp Water Temp Dewpoint Dewpoint Depression Visibility Wind Speed Wind Dir Waves Ship Positions

S/y Blue Clipper

Last reported at 2019-Mar-04 17:31 UTC. Time now 2019-Apr-25 16:30 UTC.
Position N 18°04' W 063°18'.
Warning: this ship's position is 51 days out of date.

Length 38 m.

Type: Sailing vessel. MMSI: 232014202.

Date/timePositionNaut miles runAvg speedWind from/ knotsBaromVisibWave heightAir tempDewpointWater temp
2019-Mar-04 17:31N 18°04' W 063°18'0 6.7
2019-Mar-04 17:30N 18°04' W 063°18'5 5.9
2019-Mar-04 16:40N 18°05' W 063°13'1 6.1
2019-Mar-04 16:29N 18°06' W 063°12'3 6.7
2019-Mar-04 16:00N 18°07' W 063°09'  
2019-Feb-28 09:18N 18°05' W 063°05'0 0.0
2019-Feb-28 06:23N 18°05' W 063°05'0 0.0
2019-Feb-28 05:50N 18°05' W 063°05'0 0.0
2019-Feb-28 05:05N 18°05' W 063°05'0 0.0
2019-Feb-28 03:56N 18°05' W 063°05'0 0.0
2019-Feb-28 01:53N 18°05' W 063°05'0 0.0
2019-Feb-28 01:29N 18°05' W 063°05'0 0.0
2019-Feb-27 23:56N 18°05' W 063°05'0 0.0
2019-Feb-27 20:59N 18°05' W 063°05'0 0.0
2019-Feb-27 20:20N 18°05' W 063°05'0 0.0
2019-Feb-27 19:05N 18°05' W 063°05'1 0.2
2019-Feb-27 15:47N 18°05' W 063°05'0 0.0
2019-Feb-27 15:05N 18°05' W 063°05'  
Track history (hours):
 
Tides and Currents Weather Stations Pressure Air Temp Water Temp Dewpoint Dewpoint Depression Visibility Wind Speed Wind Dir Waves Ship Positions

S/y Blue Clipper

Last reported at 2019-Mar-04 17:31 UTC. Time now 2019-Apr-25 16:30 UTC.
Position N 18°04' W 063°18'.
Warning: this ship's position is 51 days out of date.

Length 38 m.

Type: Sailing vessel. MMSI: 232014202.

Date/timePositionNaut miles runAvg speedWind from/ knotsBaromVisibWave heightAir tempDewpointWater temp
2019-Mar-04 17:31N 18°04' W 063°18'0 6.7
2019-Mar-04 17:30N 18°04' W 063°18'5 5.9
2019-Mar-04 16:40N 18°05' W 063°13'1 6.1
2019-Mar-04 16:29N 18°06' W 063°12'3 6.7
2019-Mar-04 16:00N 18°07' W 063°09'  
2019-Feb-28 09:18N 18°05' W 063°05'0 0.0
2019-Feb-28 06:23N 18°05' W 063°05'0 0.0
2019-Feb-28 05:50N 18°05' W 063°05'0 0.0
2019-Feb-28 05:05N 18°05' W 063°05'0 0.0
2019-Feb-28 03:56N 18°05' W 063°05'0 0.0
2019-Feb-28 01:53N 18°05' W 063°05'0 0.0
2019-Feb-28 01:29N 18°05' W 063°05'0 0.0
2019-Feb-27 23:56N 18°05' W 063°05'0 0.0
2019-Feb-27 20:59N 18°05' W 063°05'0 0.0
2019-Feb-27 20:20N 18°05' W 063°05'0 0.0
2019-Feb-27 19:05N 18°05' W 063°05'1 0.2
2019-Feb-27 15:47N 18°05' W 063°05'0 0.0
2019-Feb-27 15:05N 18°05' W 063°05'  

Dump ship's entire track history